Pagrindinis puslapis
METAR-TAF:

METAR-TAF

Oro uostai :

Shahrekord, Iranas

platuma: 32-20N, ilguma: 050-51E, Aukštis: 2078 m

Dabartinis oras

Ataskaita buvo paskelbta 1 valandą ir 7 minutes, ne 05:00 UTC
Vėjas 2 kt iš Pietų/Pietryčių
Temperatūra 19°C
Drėgmė 46%
Slėgis 1022 hPa
Matomumas 10 km arba daugiau
Mažai debesys ne aukštis 4000 ft

METAR: OIFS 220500Z 15002KT 9999 FEW040 19/07 Q1022

Laikas: 10:37 (06:07 UTC)


TAF: trūkstamas

Orai ataskaitas ir orų prognozės (METAR, TAF).

turimą stotys yra geltonos ir raudonos taškus žemėlapyje.

Perkelti pele per norėdami pamatyti stoties vardą.

Tada spustelėkite, norėdami matyti oro stebėjimo ir prognozės.

Norėdami pakeisti žemėlapį: spustelėkite ant žalios mygtukų su juodo kryžiaus žemyn,; žalią mygtuką su brūkšneliu, jei norite nutolinti; arba žalių rodyklių gretimoms žemėlapius.


METAR-TAF: